createdAt,value
2023-04-15T00:01:05.960Z,97398.85
2023-04-15T00:03:58.308Z,97402.05
2023-04-15T00:06:32.618Z,97405.30
2023-04-15T00:09:25.411Z,97404.20
2023-04-15T00:12:17.483Z,97405.30
2023-04-15T00:14:52.158Z,97403.05
2023-04-15T00:17:44.222Z,97412.05
2023-04-15T00:20:37.003Z,97415.63
2023-04-15T00:23:18.003Z,97413.16
2023-04-15T00:26:10.002Z,97419.64
2023-04-15T00:29:02.414Z,97421.69
2023-04-15T00:31:54.615Z,97415.33
2023-04-15T00:34:47.210Z,97416.88
2023-04-15T00:37:39.324Z,97420.92
2023-04-15T00:40:31.403Z,97431.67
2023-04-15T00:43:23.366Z,97439.63
2023-04-15T00:46:17.334Z,97437.83
2023-04-15T00:49:09.737Z,97441.30
2023-04-15T00:52:01.776Z,97450.13
2023-04-15T00:54:53.819Z,97453.38
2023-04-15T00:57:47.566Z,97458.67
2023-04-15T01:00:24.702Z,97458.69
2023-04-15T01:03:16.733Z,97454.00
2023-04-15T01:05:58.294Z,97462.55
2023-04-15T01:08:50.598Z,97462.20
2023-04-15T01:11:43.189Z,97459.92
2023-04-15T01:14:36.361Z,97454.64
2023-04-15T01:17:28.328Z,97453.40
2023-04-15T01:20:12.198Z,97454.83
2023-04-15T01:23:04.983Z,97454.20
2023-04-15T01:25:58.499Z,97455.49
2023-04-15T01:28:50.648Z,97451.29
2023-04-15T01:31:43.446Z,97450.58
2023-04-15T01:34:35.870Z,97452.58
2023-04-15T01:37:17.097Z,97459.73
2023-04-15T01:40:10.796Z,97456.08
2023-04-15T01:42:45.684Z,97453.39
2023-04-15T01:45:37.668Z,97454.55
2023-04-15T01:48:29.740Z,97452.66
2023-04-15T01:51:21.974Z,97464.89
2023-04-15T01:54:14.009Z,97462.11
2023-04-15T01:57:05.974Z,97464.11
2023-04-15T01:59:58.015Z,97463.10
2023-04-15T02:02:35.988Z,97465.05
2023-04-15T02:05:28.333Z,97473.27
2023-04-15T02:08:03.808Z,97478.93
2023-04-15T02:10:45.704Z,97484.05
2023-04-15T02:13:37.834Z,97492.02
2023-04-15T02:16:29.888Z,97495.98
2023-04-15T02:19:22.116Z,97489.29
2023-04-15T02:22:18.937Z,97494.95
2023-04-15T02:25:12.632Z,97494.36
2023-04-15T02:28:04.727Z,97495.16
2023-04-15T02:30:59.193Z,97493.33
2023-04-15T02:33:51.166Z,97489.52
2023-04-15T02:36:43.160Z,97496.70
2023-04-15T02:39:18.619Z,97496.38
2023-04-15T02:41:55.551Z,97502.83
2023-04-15T02:44:47.544Z,97508.40
2023-04-15T02:47:41.354Z,97507.77
2023-04-15T02:50:33.477Z,97509.27
2023-04-15T02:53:26.023Z,97515.20
2023-04-15T02:56:19.432Z,97521.09
2023-04-15T02:59:10.071Z,97521.55
2023-04-15T03:02:02.120Z,97528.09
2023-04-15T03:04:54.216Z,97530.30
2023-04-15T03:07:46.171Z,97534.41
2023-04-15T03:10:38.136Z,97536.33
2023-04-15T03:13:12.216Z,97542.71
2023-04-15T03:15:49.109Z,97551.00
2023-04-15T03:18:41.258Z,97550.77
2023-04-15T03:21:33.321Z,97549.98
2023-04-15T03:24:25.814Z,97552.33
2023-04-15T03:27:08.558Z,97550.14
2023-04-15T03:30:00.483Z,97551.07
2023-04-15T03:32:52.520Z,97547.86
2023-04-15T03:35:29.485Z,97554.15
2023-04-15T03:38:21.587Z,97554.94
2023-04-15T03:41:13.903Z,97559.60
2023-04-15T03:43:52.113Z,97559.90
2023-04-15T03:46:29.288Z,97563.48
2023-04-15T03:49:23.017Z,97572.82
2023-04-15T03:52:14.981Z,97578.18
2023-04-15T03:55:08.460Z,97583.34
2023-04-15T03:58:00.425Z,97583.24
2023-04-15T04:00:52.467Z,97586.88
2023-04-15T04:03:34.820Z,97590.77
2023-04-15T04:06:27.415Z,97595.72
2023-04-15T04:09:19.403Z,97598.05
2023-04-15T04:12:11.441Z,97599.15
2023-04-15T04:14:43.339Z,97593.61
2023-04-15T04:17:15.105Z,97593.63
2023-04-15T04:20:08.432Z,97600.10
2023-04-15T04:23:00.445Z,97610.92
2023-04-15T04:25:52.647Z,97611.10
2023-04-15T04:28:44.650Z,97612.51
2023-04-15T04:31:37.061Z,97615.96
2023-04-15T04:34:29.083Z,97623.25
2023-04-15T04:37:21.237Z,97629.64
2023-04-15T04:40:14.900Z,97636.89
2023-04-15T04:43:06.877Z,97635.10
2023-04-15T04:45:58.960Z,97637.82
2023-04-15T04:48:50.992Z,97637.77
2023-04-15T04:51:43.036Z,97639.61
2023-04-15T04:54:35.072Z,97637.08
2023-04-15T04:57:27.153Z,97636.40
2023-04-15T05:00:19.515Z,97637.46
2023-04-15T05:03:11.818Z,97633.64
2023-04-15T05:06:06.179Z,97631.89
2023-04-15T05:08:58.148Z,97631.02
2023-04-15T05:11:50.450Z,97637.30
2023-04-15T05:14:42.997Z,97637.45
2023-04-15T05:17:35.356Z,97629.92
2023-04-15T05:20:27.412Z,97626.83
2023-04-15T05:23:19.489Z,97629.79
2023-04-15T05:26:11.462Z,97634.20
2023-04-15T05:29:03.542Z,97634.74
2023-04-15T05:31:55.942Z,97638.77
2023-04-15T05:34:48.105Z,97646.10
2023-04-15T05:37:20.897Z,97644.02
2023-04-15T05:40:13.635Z,97646.61
2023-04-15T05:43:05.615Z,97649.92
2023-04-15T05:45:57.624Z,97644.20
2023-04-15T05:48:49.624Z,97648.41
2023-04-15T05:51:30.154Z,97651.54
2023-04-15T05:54:04.589Z,97658.81
2023-04-15T05:56:46.042Z,97663.89
2023-04-15T05:59:38.873Z,97664.61
2023-04-15T06:02:31.434Z,97661.96
2023-04-15T06:05:24.156Z,97671.64
2023-04-15T06:08:16.127Z,97675.93
2023-04-15T06:11:08.290Z,97676.15
2023-04-15T06:14:00.532Z,97674.28
2023-04-15T06:16:32.487Z,97677.45
2023-04-15T06:19:24.608Z,97679.02
2023-04-15T06:22:16.695Z,97681.54
2023-04-15T06:25:10.957Z,97680.15
2023-04-15T06:28:03.035Z,97675.25
2023-04-15T06:30:55.639Z,97679.63
2023-04-15T06:33:47.688Z,97682.32
2023-04-15T06:36:39.667Z,97688.56
2023-04-15T06:39:14.774Z,97684.60
2023-04-15T06:42:06.767Z,97686.71
2023-04-15T06:44:42.110Z,97692.05
2023-04-15T06:47:34.197Z,97689.41
2023-04-15T06:50:26.272Z,97695.24
2023-04-15T06:52:58.617Z,97697.45
2023-04-15T06:55:31.574Z,97697.75
2023-04-15T06:58:23.739Z,97700.90
2023-04-15T07:01:15.926Z,97702.74
2023-04-15T07:03:58.727Z,97705.28
2023-04-15T07:06:50.808Z,97710.23
2023-04-15T07:09:42.955Z,97703.80
2023-04-15T07:12:35.888Z,97704.80
2023-04-15T07:15:27.934Z,97714.96
2023-04-15T07:18:19.982Z,97720.70
2023-04-15T07:21:12.630Z,97722.78
2023-04-15T07:24:04.715Z,97724.80
2023-04-15T07:26:59.406Z,97717.20
2023-04-15T07:29:53.152Z,97718.94
2023-04-15T07:32:45.644Z,97720.89
2023-04-15T07:35:37.873Z,97728.38
2023-04-15T07:38:29.999Z,97730.64
2023-04-15T07:41:22.447Z,97729.51
2023-04-15T07:44:14.659Z,97727.13
2023-04-15T07:47:06.810Z,97720.88
2023-04-15T07:49:58.841Z,97721.93
2023-04-15T07:52:52.095Z,97717.06
2023-04-15T07:55:44.085Z,97716.14
2023-04-15T07:58:36.114Z,97711.35
2023-04-15T08:01:28.057Z,97711.15
2023-04-15T08:04:20.361Z,97705.15
2023-04-15T08:06:55.094Z,97706.05
2023-04-15T08:09:47.524Z,97707.40
2023-04-15T08:12:39.503Z,97712.76
2023-04-15T08:15:33.017Z,97709.03
2023-04-15T08:18:25.199Z,97714.01
2023-04-15T08:21:17.662Z,97712.02
2023-04-15T08:24:11.562Z,97709.08
2023-04-15T08:27:04.735Z,97709.11
2023-04-15T08:29:57.086Z,97707.77
2023-04-15T08:32:50.481Z,97707.41
2023-04-15T08:35:31.563Z,97703.58
2023-04-15T08:38:23.746Z,97705.60
2023-04-15T08:41:26.200Z,97704.58
2023-04-15T08:44:20.157Z,97706.00
2023-04-15T08:47:15.795Z,97706.69
2023-04-15T08:50:11.929Z,97712.88
2023-04-15T08:52:46.376Z,97708.94
2023-04-15T08:55:43.378Z,97707.98
2023-04-15T08:58:36.691Z,97714.61
2023-04-15T09:01:29.164Z,97713.29
2023-04-15T09:04:21.600Z,97712.80
2023-04-15T09:07:13.604Z,97715.16
2023-04-15T09:10:06.707Z,97718.30
2023-04-15T09:13:00.055Z,97717.59
2023-04-15T09:15:52.129Z,97716.54
2023-04-15T09:18:44.378Z,97719.16
2023-04-15T09:21:36.895Z,97719.15
2023-04-15T09:24:11.034Z,97716.05
2023-04-15T09:27:03.626Z,97716.27
2023-04-15T09:29:56.217Z,97714.58
2023-04-15T09:32:53.175Z,97712.52
2023-04-15T09:35:33.991Z,97711.92
2023-04-15T09:38:26.224Z,97713.77
2023-04-15T09:41:20.816Z,97714.89
2023-04-15T09:43:57.781Z,97714.20
2023-04-15T09:46:49.713Z,97710.05
2023-04-15T09:49:56.516Z,97710.75
2023-04-15T09:52:44.469Z,97709.88
2023-04-15T09:55:36.608Z,97710.84
2023-04-15T09:58:30.065Z,97707.07
2023-04-15T10:01:22.194Z,97707.70
2023-04-15T10:04:14.919Z,97705.79
2023-04-15T10:07:09.589Z,97705.97
2023-04-15T10:09:51.941Z,97705.17
2023-04-15T10:12:45.004Z,97709.56
2023-04-15T10:15:37.161Z,97711.94
2023-04-15T10:18:30.257Z,97705.83
2023-04-15T10:21:19.404Z,97706.70
2023-04-15T10:24:12.031Z,97718.46
2023-04-15T10:26:55.455Z,97710.90
2023-04-15T10:29:48.815Z,97709.80
2023-04-15T10:32:41.867Z,97709.09
2023-04-15T10:35:35.075Z,97713.20
2023-04-15T10:38:38.560Z,97717.23
2023-04-15T10:41:20.140Z,97709.45
2023-04-15T10:44:12.907Z,97710.89
2023-04-15T10:47:12.184Z,97711.09
2023-04-15T10:50:04.805Z,97709.92
2023-04-15T10:52:57.518Z,97712.02
2023-04-15T10:55:49.848Z,97711.91
2023-04-15T10:58:45.886Z,97712.90
2023-04-15T11:02:00.056Z,97710.81
2023-04-15T11:04:57.518Z,97712.37
2023-04-15T11:07:54.878Z,97710.94
2023-04-15T11:10:56.796Z,97711.50
2023-04-15T11:13:34.270Z,97710.48
2023-04-15T11:16:26.363Z,97708.83
2023-04-15T11:19:18.538Z,97708.51
2023-04-15T11:22:12.319Z,97710.06
2023-04-15T11:25:04.421Z,97712.26
2023-04-15T11:27:57.705Z,97711.34
2023-04-15T11:30:49.827Z,97712.38
2023-04-15T11:33:48.054Z,97713.73
2023-04-15T11:36:40.236Z,97709.34
2023-04-15T11:39:16.395Z,97713.13
2023-04-15T11:42:19.631Z,97716.10
2023-04-15T11:45:12.615Z,97715.52
2023-04-15T11:47:50.353Z,97716.94
2023-04-15T11:50:42.966Z,97718.51
2023-04-15T11:53:42.863Z,97723.85
2023-04-15T11:56:34.891Z,97719.63
2023-04-15T11:59:38.984Z,97719.27
2023-04-15T12:02:19.613Z,97720.20
2023-04-15T12:06:00.745Z,97720.23
2023-04-15T12:09:00.163Z,97723.95
2023-04-15T12:11:53.877Z,97721.74
2023-04-15T12:14:45.957Z,97724.05
2023-04-15T12:17:51.740Z,97728.88
2023-04-15T12:20:48.683Z,97722.27
2023-04-15T12:23:23.544Z,97729.11
2023-04-15T12:25:58.196Z,97732.60
2023-04-15T12:28:50.189Z,97735.82
2023-04-15T12:31:50.630Z,97734.67
2023-04-15T12:34:44.614Z,97728.36
2023-04-15T12:37:36.675Z,97734.83
2023-04-15T12:40:28.682Z,97733.59
2023-04-15T12:43:00.798Z,97728.91
2023-04-15T12:45:34.948Z,97727.59
2023-04-15T12:48:26.975Z,97731.13
2023-04-15T12:51:18.918Z,97732.02
2023-04-15T12:54:10.928Z,97729.95
2023-04-15T12:57:05.948Z,97729.55
2023-04-15T12:59:59.067Z,97727.58
2023-04-15T13:02:51.230Z,97724.40
2023-04-15T13:05:43.506Z,97719.02
2023-04-15T13:08:36.941Z,97717.56
2023-04-15T13:11:24.237Z,97714.64
2023-04-15T13:14:16.330Z,97720.11
2023-04-15T13:17:10.254Z,97725.48
2023-04-15T13:20:02.203Z,97723.38
2023-04-15T13:22:56.004Z,97725.39
2023-04-15T13:25:38.393Z,97726.63
2023-04-15T13:28:30.439Z,97729.45
2023-04-15T13:31:09.669Z,97726.33
2023-04-15T13:33:50.733Z,97728.97
2023-04-15T13:36:42.758Z,97732.45
2023-04-15T13:39:23.815Z,97731.33
2023-04-15T13:42:04.230Z,97728.20
2023-04-15T13:44:56.233Z,97729.28
2023-04-15T13:47:36.910Z,97728.52
2023-04-15T13:50:29.070Z,97734.67
2023-04-15T13:53:06.172Z,97730.34
2023-04-15T13:55:48.282Z,97735.87
2023-04-15T13:58:41.896Z,97741.29
2023-04-15T14:01:33.975Z,97744.02
2023-04-15T14:04:26.381Z,97744.39
2023-04-15T14:07:18.484Z,97743.80
2023-04-15T14:09:52.898Z,97742.23
2023-04-15T14:12:44.933Z,97744.13
2023-04-15T14:15:37.057Z,97747.17
2023-04-15T14:18:11.883Z,97748.90
2023-04-15T14:21:03.863Z,97749.98
2023-04-15T14:23:55.941Z,97757.69
2023-04-15T14:26:30.994Z,97758.67
2023-04-15T14:29:06.306Z,97761.02
2023-04-15T14:32:08.548Z,97757.77
2023-04-15T14:34:53.773Z,97757.45
2023-04-15T14:37:35.292Z,97756.02
2023-04-15T14:40:27.227Z,97758.75
2023-04-15T14:43:19.214Z,97761.05
2023-04-15T14:46:00.232Z,97762.69
2023-04-15T14:48:52.545Z,97766.10
2023-04-15T14:51:46.251Z,97766.52
2023-04-15T14:54:41.105Z,97769.29
2023-04-15T14:57:18.170Z,97771.59
2023-04-15T15:00:15.294Z,97776.48
2023-04-15T15:03:12.651Z,97777.85
2023-04-15T15:06:05.344Z,97777.13
2023-04-15T15:08:57.365Z,97784.07
2023-04-15T15:11:49.327Z,97786.41
2023-04-15T15:14:41.754Z,97786.67
2023-04-15T15:17:24.836Z,97787.55
2023-04-15T15:20:17.814Z,97789.86
2023-04-15T15:23:09.787Z,97790.88
2023-04-15T15:25:45.091Z,97792.61
2023-04-15T15:28:37.202Z,97793.75
2023-04-15T15:31:29.256Z,97795.77
2023-04-15T15:34:01.103Z,97794.07
2023-04-15T15:36:43.113Z,97796.34
2023-04-15T15:39:35.181Z,97792.77
2023-04-15T15:42:27.649Z,97794.95
2023-04-15T15:45:19.953Z,97800.24
2023-04-15T15:48:12.063Z,97801.44
2023-04-15T15:50:46.920Z,97808.05
2023-04-15T15:53:27.848Z,97805.63
2023-04-15T15:56:20.085Z,97808.23
2023-04-15T15:59:12.102Z,97809.51
2023-04-15T16:01:44.048Z,97810.86
2023-04-15T16:04:36.405Z,97809.77
2023-04-15T16:07:28.601Z,97810.63
2023-04-15T16:10:00.542Z,97812.31
2023-04-15T16:12:52.542Z,97816.35
2023-04-15T16:15:44.534Z,97812.86
2023-04-15T16:18:36.454Z,97814.42
2023-04-15T16:21:11.384Z,97818.15
2023-04-15T16:24:04.200Z,97819.43
2023-04-15T16:26:58.434Z,97818.95
2023-04-15T16:29:34.366Z,97819.92
2023-04-15T16:32:26.454Z,97819.16
2023-04-15T16:35:18.536Z,97822.34
2023-04-15T16:38:10.541Z,97829.42
2023-04-15T16:40:42.535Z,97832.18
2023-04-15T16:43:17.311Z,97838.19
2023-04-15T16:46:09.581Z,97841.95
2023-04-15T16:49:01.830Z,97846.79
2023-04-15T16:51:54.733Z,97851.86
2023-04-15T16:54:46.821Z,97855.92
2023-04-15T16:58:00.893Z,97858.14
2023-04-15T17:00:51.184Z,97866.02
2023-04-15T17:03:43.383Z,97876.95
2023-04-15T17:06:35.716Z,97881.11
2023-04-15T17:09:27.978Z,97886.54
2023-04-15T17:12:20.228Z,97889.48
2023-04-15T17:15:13.111Z,97906.20
2023-04-15T17:18:05.176Z,97905.63
2023-04-15T17:20:57.532Z,97910.56
2023-04-15T17:23:49.582Z,97918.95
2023-04-15T17:26:41.764Z,97933.48
2023-04-15T17:29:33.872Z,97945.27
2023-04-15T17:32:30.633Z,97958.23
2023-04-15T17:35:23.409Z,97961.80
2023-04-15T17:38:15.522Z,97959.91
2023-04-15T17:41:08.389Z,97962.90
2023-04-15T17:44:00.567Z,97978.73
2023-04-15T17:46:52.578Z,97990.55
2023-04-15T17:49:44.632Z,97994.04
2023-04-15T17:52:36.644Z,98001.13
2023-04-15T17:55:28.860Z,98015.27
2023-04-15T17:58:21.307Z,98028.84
2023-04-15T18:01:13.539Z,98039.10
2023-04-15T18:04:06.466Z,98037.48
2023-04-15T18:06:58.796Z,98035.48
2023-04-15T18:09:51.605Z,98019.99
2023-04-15T18:12:43.933Z,98025.09
2023-04-15T18:15:36.078Z,98043.84
2023-04-15T18:18:28.975Z,98064.98
2023-04-15T18:21:21.300Z,98072.80
2023-04-15T18:24:13.824Z,98082.95
2023-04-15T18:27:06.288Z,98093.72
2023-04-15T18:29:58.639Z,98103.09
2023-04-15T18:32:32.532Z,98105.10
2023-04-15T18:35:24.696Z,98098.21
2023-04-15T18:38:16.697Z,98100.40
2023-04-15T18:41:10.060Z,98099.76
2023-04-15T18:44:02.216Z,98103.59
2023-04-15T18:46:54.273Z,98097.08
2023-04-15T18:49:46.520Z,98104.41
2023-04-15T18:52:38.586Z,98110.59
2023-04-15T18:55:31.313Z,98119.20
2023-04-15T18:58:23.331Z,98109.42
2023-04-15T19:01:03.974Z,98108.02
2023-04-15T19:03:56.290Z,98107.33
2023-04-15T19:06:28.611Z,98111.77
2023-04-15T19:09:20.618Z,98113.83
2023-04-15T19:12:12.626Z,98118.51
2023-04-15T19:15:04.789Z,98124.39
2023-04-15T19:17:48.134Z,98126.23
2023-04-15T19:20:28.883Z,98129.09
2023-04-15T19:23:06.108Z,98130.70
2023-04-15T19:25:58.915Z,98130.71
2023-04-15T19:28:36.440Z,98130.75
2023-04-15T19:31:28.721Z,98127.30
2023-04-15T19:34:21.289Z,98127.50
2023-04-15T19:37:14.643Z,98129.77
2023-04-15T19:40:08.600Z,98131.89
2023-04-15T19:43:00.805Z,98134.27
2023-04-15T19:45:54.645Z,98127.68
2023-04-15T19:48:32.631Z,98133.31
2023-04-15T19:51:24.668Z,98135.50
2023-04-15T19:54:16.840Z,98137.04
2023-04-15T19:57:08.963Z,98136.12
2023-04-15T20:00:01.119Z,98136.34
2023-04-15T20:02:53.201Z,98138.84
2023-04-15T20:05:45.424Z,98137.19
2023-04-15T20:08:37.787Z,98140.21
2023-04-15T20:11:18.505Z,98142.85
2023-04-15T20:14:10.575Z,98147.20
2023-04-15T20:17:02.658Z,98150.23
2023-04-15T20:19:54.608Z,98150.80
2023-04-15T20:22:46.812Z,98151.58
2023-04-15T20:25:38.851Z,98150.64
2023-04-15T20:28:30.944Z,98149.83
2023-04-15T20:31:23.704Z,98150.92
2023-04-15T20:34:15.767Z,98147.69
2023-04-15T20:37:08.267Z,98149.00
2023-04-15T20:40:00.639Z,98152.77
2023-04-15T20:42:43.648Z,98154.29
2023-04-15T20:45:35.685Z,98156.38
2023-04-15T20:48:27.678Z,98164.70
2023-04-15T20:51:19.711Z,98168.57
2023-04-15T20:54:11.803Z,98171.31
2023-04-15T20:57:03.983Z,98169.92
2023-04-15T20:59:55.966Z,98165.98
2023-04-15T21:02:48.088Z,98168.60
2023-04-15T21:05:40.173Z,98172.91
2023-04-15T21:08:32.308Z,98178.98
2023-04-15T21:11:43.007Z,98181.73
2023-04-15T21:14:36.999Z,98180.43
2023-04-15T21:17:29.108Z,98178.95
2023-04-15T21:20:21.569Z,98182.18
2023-04-15T21:23:13.504Z,98187.52
2023-04-15T21:26:05.728Z,98194.24
2023-04-15T21:28:57.661Z,98195.05
2023-04-15T21:31:38.222Z,98199.31
2023-04-15T21:34:22.202Z,98204.62
2023-04-15T21:36:56.370Z,98206.55
2023-04-15T21:39:48.335Z,98212.02
2023-04-15T21:42:41.628Z,98215.88
2023-04-15T21:45:33.568Z,98219.86
2023-04-15T21:48:14.501Z,98218.23
2023-04-15T21:51:06.908Z,98221.00
2023-04-15T21:53:59.028Z,98224.79
2023-04-15T21:56:51.038Z,98232.04
2023-04-15T21:59:42.998Z,98229.94
2023-04-15T22:02:37.621Z,98236.04
2023-04-15T22:05:29.738Z,98239.70
2023-04-15T22:08:21.639Z,98244.43
2023-04-15T22:11:23.053Z,98251.40
2023-04-15T22:14:15.124Z,98258.52
2023-04-15T22:17:07.192Z,98261.89
2023-04-15T22:19:59.174Z,98262.64
2023-04-15T22:22:44.362Z,98263.72
2023-04-15T22:25:36.854Z,98267.94
2023-04-15T22:28:28.765Z,98274.14
2023-04-15T22:31:20.771Z,98275.19
2023-04-15T22:34:14.777Z,98274.49
2023-04-15T22:37:06.951Z,98276.92
2023-04-15T22:39:59.383Z,98283.77
2023-04-15T22:42:51.504Z,98289.04
2023-04-15T22:45:43.511Z,98290.51
2023-04-15T22:48:35.658Z,98292.36
2023-04-15T22:51:28.087Z,98301.86
2023-04-15T22:54:20.097Z,98305.45
2023-04-15T22:57:12.043Z,98307.48
2023-04-15T23:00:05.694Z,98313.86
2023-04-15T23:02:57.836Z,98316.71
2023-04-15T23:05:50.026Z,98319.09
2023-04-15T23:08:42.044Z,98323.33
2023-04-15T23:11:34.062Z,98327.40
2023-04-15T23:14:28.367Z,98332.04
2023-04-15T23:17:20.405Z,98328.66
2023-04-15T23:20:15.682Z,98330.62
2023-04-15T23:23:06.533Z,98326.85
2023-04-15T23:25:58.529Z,98327.95
2023-04-15T23:28:50.650Z,98327.50
2023-04-15T23:31:42.848Z,98332.97
2023-04-15T23:34:17.551Z,98334.42
2023-04-15T23:37:09.667Z,98338.02
2023-04-15T23:40:01.729Z,98341.02
2023-04-15T23:42:53.725Z,98342.59
2023-04-15T23:45:45.718Z,98346.80
2023-04-15T23:48:23.552Z,98343.23
2023-04-15T23:51:15.662Z,98344.16
2023-04-15T23:54:07.817Z,98348.91
2023-04-15T23:56:46.142Z,98349.85
2023-04-15T23:59:38.121Z,98351.65
